Cisco, Illinois
Current Conditions -  °F | °C
As of 12:54 PM on Sunday 23 Nov 2014 (Local Time) from KDEC Reporting Station
Light Rain Light Rain  
Wind Chill: 52°   Ceiling: 9000
Heat Index: 52°   Visibility: 6mi
Dew Point: 49°   Wind: 17mph
Humidity: 89%   Direction: 140°SE
Pressure: 29.53"   Gusts: NA
Location:  40.01°N, 88.73°W
Report Text: KDEC 231854Z 14015KT 6SM -RA BR FEW065 OVC090 11/09 A2953 RMK AO2 SLP999 P0002 T01110094
Loading
Personal Weather Stations






























Interactive Weather Map New forecast layout! Learn more

10-Day Weather Forecast

Advertisements
Track Severe Weather on mobile